Time;durP1;ratioP1;P1;durP2;ratioP2;P2;SDS_P1;SDS_P2;PMS_P1;PMS_P2;Temp;Humidity;BMP_temperature;BMP_pressure;BME280_temperature;BME280_humidity;BME280_pressure;Samples;Min_cycle;Max_cycle;Signal;HPM_P1;HPM_P2
2020/12/15 00:00:06;;;;;;;18.10;9.45;;;;;;;;;;5073409;28;20045;-78
2020/12/15 00:02:33;;;;;;;19.00;9.05;;;;;;;;;;5072267;28;20052;-78
2020/12/15 00:05:00;;;;;;;19.08;9.40;;;;;;;;;;5069297;28;20048;-78
2020/12/15 00:07:28;;;;;;;15.95;8.60;;;;;;;;;;5052589;28;20044;-78
2020/12/15 00:09:56;;;;;;;18.85;9.02;;;;;;;;;;5053239;28;20049;-78
2020/12/15 00:12:23;;;;;;;15.95;8.70;;;;;;;;;;5056599;28;20422;-78
2020/12/15 00:14:49;;;;;;;18.55;8.43;;;;;;;;;;5052836;28;20056;-78
2020/12/15 00:17:19;;;;;;;20.00;9.75;;;;;;;;;;5069762;28;20114;-78
2020/12/15 00:19:46;;;;;;;19.80;9.50;;;;;;;;;;5053868;28;20064;-79
2020/12/15 00:22:12;;;;;;;22.52;9.75;;;;;;;;;;5053472;28;20136;-79
2020/12/15 00:24:40;;;;;;;18.83;9.90;;;;;;;;;;5055958;28;20105;-78
2020/12/15 00:27:07;;;;;;;23.35;9.23;;;;;;;;;;5052052;28;20114;-78
2020/12/15 00:29:33;;;;;;;18.85;9.07;;;;;;;;;;5061741;28;20056;-78
2020/12/15 00:32:01;;;;;;;19.27;9.68;;;;;;;;;;5073126;28;20053;-78
2020/12/15 00:34:28;;;;;;;24.33;10.43;;;;;;;;;;5071747;28;20068;-78
2020/12/15 00:36:58;;;;;;;26.55;9.90;;;;;;;;;;5064677;28;20079;-79
2020/12/15 00:39:25;;;;;;;25.58;10.40;;;;;;;;;;5060888;28;20568;-78
2020/12/15 00:41:51;;;;;;;17.95;9.25;;;;;;;;;;5073377;28;20056;-78
2020/12/15 00:44:18;;;;;;;22.52;9.45;;;;;;;;;;5064575;28;20049;-78
2020/12/15 00:46:49;;;;;;;18.38;9.18;;;;;;;;;;5052574;28;20543;-78
2020/12/15 00:49:16;;;;;;;22.45;11.02;;;;;;;;;;5058367;28;20633;-78
2020/12/15 00:51:43;;;;;;;18.38;9.55;;;;;;;;;;5066672;28;20061;-78
2020/12/15 00:54:10;;;;;;;20.77;10.63;;;;;;;;;;5053478;28;20140;-78
2020/12/15 00:56:40;;;;;;;20.92;10.68;;;;;;;;;;5063314;28;20091;-78
2020/12/15 00:59:08;;;;;;;19.73;10.35;;;;;;;;;;5051785;28;20087;-78
2020/12/15 01:01:35;;;;;;;21.05;10.38;;;;;;;;;;5062458;28;20044;-78
2020/12/15 01:04:02;;;;;;;19.20;10.15;;;;;;;;;;5072845;28;20392;-79
2020/12/15 01:06:28;;;;;;;22.58;10.63;;;;;;;;;;5072537;28;20049;-78
2020/12/15 01:08:55;;;;;;;24.23;11.10;;;;;;;;;;5072232;28;20859;-78
2020/12/15 01:11:27;;;;;;;23.80;11.30;;;;;;;;;;5067952;28;20083;-78
2020/12/15 01:13:54;;;;;;;23.83;11.27;;;;;;;;;;5071199;28;20068;-78
2020/12/15 01:16:21;;;;;;;24.48;11.35;;;;;;;;;;5072481;28;20461;-78
2020/12/15 01:18:48;;;;;;;22.08;10.32;;;;;;;;;;5073002;28;20296;-78
2020/12/15 01:21:24;;;;;;;22.85;11.15;;;;;;;;;;5060427;28;20052;-78
2020/12/15 01:23:51;;;;;;;24.05;10.60;;;;;;;;;;5062344;28;20064;-77
2020/12/15 01:26:18;;;;;;;26.60;10.85;;;;;;;;;;5071958;28;20153;-78
2020/12/15 01:28:44;;;;;;;23.90;11.35;;;;;;;;;;5053721;28;20382;-78
2020/12/15 01:31:12;;;;;;;21.42;11.18;;;;;;;;;;5051471;28;20527;-78
2020/12/15 01:33:39;;;;;;;23.30;11.13;;;;;;;;;;5069057;28;20440;-77
2020/12/15 01:36:06;;;;;;;26.48;11.63;;;;;;;;;;5056866;28;20072;-78
2020/12/15 01:38:32;;;;;;;20.50;10.52;;;;;;;;;;5052620;28;20061;-78
2020/12/15 01:41:01;;;;;;;24.85;11.98;;;;;;;;;;5069943;28;20040;-78
2020/12/15 01:43:31;;;;;;;23.75;11.77;;;;;;;;;;5066626;28;20045;-78
2020/12/15 01:45:57;;;;;;;23.83;11.82;;;;;;;;;;5051224;28;20049;-78
2020/12/15 01:48:24;;;;;;;23.48;11.27;;;;;;;;;;5051122;28;20052;-78
2020/12/15 01:50:52;;;;;;;24.98;11.52;;;;;;;;;;5061405;28;20106;-78
2020/12/15 01:53:19;;;;;;;28.35;12.02;;;;;;;;;;5056712;28;20060;-78
2020/12/15 01:55:47;;;;;;;27.17;11.20;;;;;;;;;;5058552;28;20048;-78
2020/12/15 01:58:14;;;;;;;26.08;11.52;;;;;;;;;;5068302;28;20133;-78
2020/12/15 02:00:40;;;;;;;33.33;12.35;;;;;;;;;;5071355;28;20079;-78
2020/12/15 02:03:08;;;;;;;24.05;10.98;;;;;;;;;;5070623;28;20123;-78
2020/12/15 02:05:34;;;;;;;26.13;11.48;;;;;;;;;;5054934;28;20088;-78
2020/12/15 02:08:01;;;;;;;24.05;12.05;;;;;;;;;;5070173;28;20433;-78
2020/12/15 02:10:28;;;;;;;28.90;11.95;;;;;;;;;;5066698;28;20076;-78
2020/12/15 02:12:55;;;;;;;27.30;11.77;;;;;;;;;;5062968;28;20524;-78
2020/12/15 02:15:22;;;;;;;22.38;12.25;;;;;;;;;;5067152;28;20161;-78
2020/12/15 02:17:49;;;;;;;28.00;11.73;;;;;;;;;;5059790;28;20084;-78
2020/12/15 02:20:15;;;;;;;26.10;11.85;;;;;;;;;;5051520;28;20076;-78
2020/12/15 02:22:42;;;;;;;25.83;12.98;;;;;;;;;;5054375;28;20061;-78
2020/12/15 02:25:09;;;;;;;25.10;12.10;;;;;;;;;;5058665;28;20566;-78
2020/12/15 02:27:35;;;;;;;25.80;12.25;;;;;;;;;;5069331;28;20135;-78
2020/12/15 02:30:07;;;;;;;25.17;11.00;;;;;;;;;;5063606;28;20057;-78
2020/12/15 02:32:36;;;;;;;25.55;11.63;;;;;;;;;;5064548;28;20107;-78
2020/12/15 02:35:04;;;;;;;23.30;11.75;;;;;;;;;;5058655;28;20048;-77
2020/12/15 02:37:31;;;;;;;25.88;11.70;;;;;;;;;;5073827;28;20044;-78
2020/12/15 02:40:02;;;;;;;19.98;10.77;;;;;;;;;;5069313;28;20076;-77
2020/12/15 02:42:30;;;;;;;26.15;12.05;;;;;;;;;;5067736;28;20068;-78
2020/12/15 02:44:57;;;;;;;28.00;11.60;;;;;;;;;;5065583;28;20127;-79
2020/12/15 02:47:24;;;;;;;29.48;11.52;;;;;;;;;;5074135;28;20571;-78
2020/12/15 02:49:50;;;;;;;21.92;11.27;;;;;;;;;;5064976;28;20100;-78
2020/12/15 02:52:19;;;;;;;23.63;11.65;;;;;;;;;;5054283;28;20794;-78
2020/12/15 02:54:50;;;;;;;30.90;12.45;;;;;;;;;;5052681;28;20041;-77
2020/12/15 02:57:19;;;;;;;27.58;12.25;;;;;;;;;;5053419;28;20146;-78
2020/12/15 02:59:46;;;;;;;25.13;12.30;;;;;;;;;;5061169;28;20123;-78
2020/12/15 03:02:18;;;;;;;25.38;11.88;;;;;;;;;;5053536;28;20140;-78
2020/12/15 03:04:45;;;;;;;28.35;12.98;;;;;;;;;;5053239;28;20072;-78
2020/12/15 03:07:14;;;;;;;24.52;11.90;;;;;;;;;;5054279;28;20126;-78
2020/12/15 03:09:41;;;;;;;24.08;11.88;;;;;;;;;;5054560;28;20088;-78
2020/12/15 03:12:20;;;;;;;23.38;11.57;;;;;;;;;;5062657;28;20155;-78
2020/12/15 03:14:47;;;;;;;31.23;12.88;;;;;;;;;;5074692;28;20049;-78
2020/12/15 03:17:14;;;;;;;28.05;12.73;;;;;;;;;;5072749;28;20136;-78
2020/12/15 03:19:40;;;;;;;27.08;12.75;;;;;;;;;;5068254;28;20069;-77
2020/12/15 03:22:08;;;;;;;25.33;12.68;;;;;;;;;;5066054;28;21626;-79
2020/12/15 03:24:35;;;;;;;28.63;13.15;;;;;;;;;;5072859;28;20116;-77
2020/12/15 03:27:02;;;;;;;29.13;11.82;;;;;;;;;;5072808;28;20040;-77
2020/12/15 03:29:29;;;;;;;22.58;11.35;;;;;;;;;;5066969;28;20044;-77
2020/12/15 03:31:56;;;;;;;25.98;12.80;;;;;;;;;;5067429;28;20084;-78
2020/12/15 03:34:24;;;;;;;23.17;11.93;;;;;;;;;;5074951;28;20398;-77
2020/12/15 03:36:51;;;;;;;24.88;12.57;;;;;;;;;;5072430;28;20047;-78
2020/12/15 03:39:18;;;;;;;23.33;10.88;;;;;;;;;;5070497;28;20162;-78
2020/12/15 03:41:46;;;;;;;26.70;12.07;;;;;;;;;;5063832;28;20128;-80
2020/12/15 03:44:13;;;;;;;25.58;11.73;;;;;;;;;;5068697;28;20110;-78
2020/12/15 03:46:40;;;;;;;26.38;11.95;;;;;;;;;;5065738;28;20086;-78
2020/12/15 03:49:07;;;;;;;24.77;11.50;;;;;;;;;;5067196;28;20719;-77
2020/12/15 03:51:36;;;;;;;25.05;12.32;;;;;;;;;;5076120;28;20599;-78
2020/12/15 03:54:03;;;;;;;24.52;12.77;;;;;;;;;;5068371;28;20044;-78
2020/12/15 03:56:33;;;;;;;28.42;13.10;;;;;;;;;;5064561;28;20537;-85
2020/12/15 04:01:33;;;;;;;24.52;12.02;;;;;;;;;;5048084;28;20055;-79
2020/12/15 04:04:02;;;;;;;26.40;12.65;;;;;;;;;;5048156;28;20099;-78
2020/12/15 04:06:29;;;;;;;23.73;12.07;;;;;;;;;;5049348;28;20079;-78
2020/12/15 04:08:56;;;;;;;26.65;12.55;;;;;;;;;;5052181;28;20045;-77
2020/12/15 04:11:23;;;;;;;26.42;12.52;;;;;;;;;;5049374;28;20053;-78
2020/12/15 04:13:50;;;;;;;27.20;12.15;;;;;;;;;;5053553;28;20081;-78
2020/12/15 04:16:17;;;;;;;33.58;13.95;;;;;;;;;;5053426;28;20788;-78
2020/12/15 04:18:43;;;;;;;28.30;12.02;;;;;;;;;;5052923;28;20590;-78
2020/12/15 04:21:11;;;;;;;29.25;13.00;;;;;;;;;;5052634;28;20068;-78
2020/12/15 04:23:39;;;;;;;25.48;12.65;;;;;;;;;;5052709;28;20182;-78
2020/12/15 04:26:07;;;;;;;27.23;12.55;;;;;;;;;;5052422;28;20837;-78
2020/12/15 04:28:34;;;;;;;28.45;13.48;;;;;;;;;;5053895;28;20080;-77
2020/12/15 04:31:00;;;;;;;30.00;13.00;;;;;;;;;;5051767;28;20056;-78
2020/12/15 04:33:37;;;;;;;29.10;12.80;;;;;;;;;;5052830;28;20060;-77
2020/12/15 04:36:07;;;;;;;30.33;12.95;;;;;;;;;;5052225;28;20154;-80
2020/12/15 04:38:33;;;;;;;27.30;12.52;;;;;;;;;;5054144;28;20080;-78
2020/12/15 04:41:00;;;;;;;29.83;13.82;;;;;;;;;;5051278;28;20476;-79
2020/12/15 04:43:28;;;;;;;24.45;12.25;;;;;;;;;;5051465;28;20155;-78
2020/12/15 04:45:56;;;;;;;29.33;13.10;;;;;;;;;;5051108;28;20500;-78
2020/12/15 04:48:23;;;;;;;29.25;13.48;;;;;;;;;;5050297;28;20056;-78
2020/12/15 04:50:50;;;;;;;27.83;13.18;;;;;;;;;;5046998;28;20060;-78
2020/12/15 04:53:23;;;;;;;26.02;12.77;;;;;;;;;;5043063;28;20081;-77
2020/12/15 04:55:50;;;;;;;29.10;13.23;;;;;;;;;;5048573;28;20072;-78
2020/12/15 04:58:21;;;;;;;24.58;11.75;;;;;;;;;;5039241;28;20052;-79
2020/12/15 05:00:50;;;;;;;25.88;12.73;;;;;;;;;;5052344;28;20049;-78
2020/12/15 05:03:30;;;;;;;24.98;12.07;;;;;;;;;;5048829;28;20461;-78
2020/12/15 05:05:57;;;;;;;25.45;13.05;;;;;;;;;;5032523;28;20474;-79
2020/12/15 05:08:23;;;;;;;28.20;11.73;;;;;;;;;;5048400;28;20053;-78
2020/12/15 05:10:50;;;;;;;27.20;12.90;;;;;;;;;;5048089;28;20058;-78
2020/12/15 05:13:47;;;;;;;24.65;12.13;;;;;;;;;;5046997;28;20103;-78
2020/12/15 05:16:15;;;;;;;28.95;13.15;;;;;;;;;;5045916;28;20064;-86
2020/12/15 05:18:42;;;;;;;25.33;13.20;;;;;;;;;;5041540;28;20057;-86
2020/12/15 05:21:20;;;;;;;28.38;12.60;;;;;;;;;;5057186;28;20521;-86
2020/12/15 05:23:55;;;;;;;24.45;12.80;;;;;;;;;;5053509;28;20632;-86
2020/12/15 05:26:25;;;;;;;21.88;11.50;;;;;;;;;;5054604;28;20045;-87
2020/12/15 05:29:06;;;;;;;27.65;12.88;;;;;;;;;;5042898;28;20045;-86
2020/12/15 05:31:34;;;;;;;26.02;12.00;;;;;;;;;;5054836;28;20390;-86
2020/12/15 05:34:03;;;;;;;31.30;14.57;;;;;;;;;;5047334;28;20109;-79
2020/12/15 05:36:30;;;;;;;27.20;12.48;;;;;;;;;;5047862;28;20063;-79
2020/12/15 05:39:04;;;;;;;30.55;13.95;;;;;;;;;;5050604;28;20060;-79
2020/12/15 05:41:32;;;;;;;31.20;13.55;;;;;;;;;;5045727;28;20049;-79
2020/12/15 05:43:59;;;;;;;28.98;13.80;;;;;;;;;;5050138;28;20392;-79
2020/12/15 05:46:38;;;;;;;27.08;13.35;;;;;;;;;;5044985;28;20059;-79
2020/12/15 05:49:06;;;;;;;33.58;14.10;;;;;;;;;;5049904;28;20477;-78
2020/12/15 05:51:38;;;;;;;32.30;16.20;;;;;;;;;;5028039;28;20045;-80
2020/12/15 05:54:06;;;;;;;31.17;13.23;;;;;;;;;;5058188;28;20045;-81
2020/12/15 05:56:33;;;;;;;26.83;12.93;;;;;;;;;;5052526;28;20716;-79
2020/12/15 05:59:00;;;;;;;26.65;12.57;;;;;;;;;;5054808;28;20055;-85
2020/12/15 06:01:27;;;;;;;25.45;12.02;;;;;;;;;;5056386;28;20092;-85
2020/12/15 06:07:06;;;;;;;28.45;13.52;;;;;;;;;;5168157;22;20062;-78
2020/12/15 06:09:34;;;;;;;29.65;13.70;;;;;;;;;;5112180;28;20166;-78
2020/12/15 06:12:02;;;;;;;26.67;12.93;;;;;;;;;;5093707;28;20052;-86
2020/12/15 06:14:31;;;;;;;27.50;12.57;;;;;;;;;;5079705;28;20059;-86
2020/12/15 06:16:57;;;;;;;23.90;12.13;;;;;;;;;;5095447;28;20139;-85
2020/12/15 06:19:30;;;;;;;26.20;12.02;;;;;;;;;;5088950;28;20406;-82
2020/12/15 06:21:58;;;;;;;27.38;12.98;;;;;;;;;;5096070;28;20098;-85
2020/12/15 06:24:30;;;;;;;25.38;12.10;;;;;;;;;;5098154;28;20063;-86
2020/12/15 06:26:59;;;;;;;25.55;12.18;;;;;;;;;;5101348;28;20044;-79
2020/12/15 06:29:30;;;;;;;24.17;12.60;;;;;;;;;;5089845;22;20052;-81
2020/12/15 06:31:58;;;;;;;26.05;12.30;;;;;;;;;;5071654;28;20124;-81
2020/12/15 06:34:26;;;;;;;20.58;10.80;;;;;;;;;;5070885;28;20052;-81
2020/12/15 06:36:55;;;;;;;31.67;13.82;;;;;;;;;;5059249;28;20144;-78
2020/12/15 06:39:23;;;;;;;29.20;12.93;;;;;;;;;;5079721;28;20052;-78
2020/12/15 06:41:57;;;;;;;26.30;12.93;;;;;;;;;;5078220;28;20063;-79
2020/12/15 06:44:37;;;;;;;28.30;13.10;;;;;;;;;;5069079;28;20139;-79
2020/12/15 06:47:05;;;;;;;27.95;12.75;;;;;;;;;;5072050;28;20048;-79
2020/12/15 06:49:32;;;;;;;26.48;12.25;;;;;;;;;;5087917;28;20404;-78
2020/12/15 06:52:03;;;;;;;27.30;12.68;;;;;;;;;;5063577;28;20052;-79
2020/12/15 06:54:31;;;;;;;22.92;11.30;;;;;;;;;;5065250;28;20062;-80
2020/12/15 06:57:02;;;;;;;24.08;11.63;;;;;;;;;;5061286;28;20075;-79
2020/12/15 06:59:29;;;;;;;20.88;11.27;;;;;;;;;;5087545;28;20127;-79
2020/12/15 07:02:13;;;;;;;24.42;11.95;;;;;;;;;;5085019;28;20048;-78
2020/12/15 07:04:45;;;;;;;23.48;12.00;;;;;;;;;;5073610;28;20044;-79
2020/12/15 07:07:12;;;;;;;25.65;12.60;;;;;;;;;;5055504;28;20073;-79
2020/12/15 07:09:39;;;;;;;24.63;12.32;;;;;;;;;;5071127;28;20119;-79
2020/12/15 07:12:16;;;;;;;21.42;10.68;;;;;;;;;;5069706;28;20472;-79
2020/12/15 07:14:49;;;;;;;22.50;11.43;;;;;;;;;;5069987;28;20312;-78
2020/12/15 07:17:17;;;;;;;21.67;11.63;;;;;;;;;;5063767;28;20390;-78
2020/12/15 07:19:44;;;;;;;23.98;11.98;;;;;;;;;;5085369;28;20080;-79
2020/12/15 07:22:11;;;;;;;30.88;12.27;;;;;;;;;;5091395;28;20052;-79
2020/12/15 07:24:39;;;;;;;25.40;12.00;;;;;;;;;;5068431;28;20128;-79
2020/12/15 07:27:06;;;;;;;31.08;12.82;;;;;;;;;;5069818;28;20051;-79
2020/12/15 07:29:33;;;;;;;24.27;11.48;;;;;;;;;;5063771;28;20083;-79
2020/12/15 07:31:59;;;;;;;23.13;10.90;;;;;;;;;;5072257;28;20051;-84
2020/12/15 07:34:26;;;;;;;24.17;11.10;;;;;;;;;;5072515;28;20052;-79
2020/12/15 07:36:55;;;;;;;21.98;10.00;;;;;;;;;;5071441;28;20125;-78
2020/12/15 07:39:21;;;;;;;23.23;11.75;;;;;;;;;;5081842;28;20158;-78
2020/12/15 07:41:55;;;;;;;89.78;17.83;;;;;;;;;;5073066;28;20071;-81
2020/12/15 07:44:22;;;;;;;23.42;10.93;;;;;;;;;;5071664;28;20040;-81
2020/12/15 07:46:49;;;;;;;22.92;11.40;;;;;;;;;;5075658;28;20169;-81
2020/12/15 07:49:16;;;;;;;24.35;9.98;;;;;;;;;;5072488;28;20675;-81
2020/12/15 07:51:43;;;;;;;22.83;11.27;;;;;;;;;;5066533;28;20058;-82
2020/12/15 07:54:09;;;;;;;25.00;12.15;;;;;;;;;;5069687;28;20080;-81
2020/12/15 07:56:36;;;;;;;21.48;10.95;;;;;;;;;;5082868;28;20091;-81
2020/12/15 07:59:03;;;;;;;26.02;11.88;;;;;;;;;;5089004;28;20088;-81
2020/12/15 08:01:31;;;;;;;26.27;12.13;;;;;;;;;;5073968;28;20093;-80
2020/12/15 08:04:06;;;;;;;23.23;12.32;;;;;;;;;;5075609;28;20398;-81
2020/12/15 08:06:34;;;;;;;25.27;11.37;;;;;;;;;;5093284;28;20500;-81
2020/12/15 08:09:02;;;;;;;20.83;10.77;;;;;;;;;;5057546;28;20382;-81
2020/12/15 08:11:29;;;;;;;26.00;12.52;;;;;;;;;;5080957;28;20078;-80
2020/12/15 08:13:59;;;;;;;25.73;11.75;;;;;;;;;;5060174;28;20071;-80
2020/12/15 08:16:26;;;;;;;22.77;11.13;;;;;;;;;;5076157;28;20497;-81
2020/12/15 08:19:06;;;;;;;24.92;11.77;;;;;;;;;;5077908;28;20135;-81
2020/12/15 08:21:45;;;;;;;19.38;10.57;;;;;;;;;;5057486;28;20493;-82
2020/12/15 08:24:27;;;;;;;26.27;11.07;;;;;;;;;;5083465;28;20393;-82
2020/12/15 08:30:21;;;;;;;26.98;11.60;;;;;;;;;;5108941;27;20044;-79
2020/12/15 08:32:51;;;;;;;23.73;10.55;;;;;;;;;;5095084;28;20104;-82
2020/12/15 08:35:22;;;;;;;24.65;11.13;;;;;;;;;;5095108;28;20109;-78
2020/12/15 08:37:53;;;;;;;22.13;11.35;;;;;;;;;;5112595;28;20631;-79
2020/12/15 08:40:19;;;;;;;22.77;11.27;;;;;;;;;;5099214;28;20047;-78
2020/12/15 08:42:48;;;;;;;22.70;11.40;;;;;;;;;;5094989;28;20534;-78
2020/12/15 08:45:18;;;;;;;21.60;11.60;;;;;;;;;;5095584;28;20043;-79
2020/12/15 08:47:48;;;;;;;23.67;11.93;;;;;;;;;;5108580;28;20090;-78
2020/12/15 08:50:16;;;;;;;21.30;10.27;;;;;;;;;;5100131;28;20119;-78
2020/12/15 08:52:44;;;;;;;20.00;11.23;;;;;;;;;;5113291;28;20108;-78
2020/12/15 08:55:13;;;;;;;24.50;11.07;;;;;;;;;;5112612;28;20050;-78
2020/12/15 08:57:40;;;;;;;24.15;11.88;;;;;;;;;;5112062;28;20043;-78
2020/12/15 09:00:16;;;;;;;23.92;10.25;;;;;;;;;;5113026;27;20663;-78
2020/12/15 09:02:43;;;;;;;24.60;11.63;;;;;;;;;;5098174;28;20415;-77
2020/12/15 09:05:25;;;;;;;19.70;10.52;;;;;;;;;;5073523;28;20058;-78
2020/12/15 09:07:52;;;;;;;21.95;10.98;;;;;;;;;;5073747;28;20052;-79
2020/12/15 09:10:19;;;;;;;19.13;9.85;;;;;;;;;;5103629;27;20099;-79
2020/12/15 09:12:47;;;;;;;18.45;10.18;;;;;;;;;;5114993;27;20710;-78
2020/12/15 09:15:15;;;;;;;20.55;10.52;;;;;;;;;;5114897;27;20047;-78
2020/12/15 09:17:43;;;;;;;24.65;11.85;;;;;;;;;;5132955;27;20134;-78
2020/12/15 09:20:09;;;;;;;22.52;10.45;;;;;;;;;;5092792;28;20546;-78
2020/12/15 09:22:38;;;;;;;22.35;11.88;;;;;;;;;;5094119;28;20484;-78
2020/12/15 09:25:14;;;;;;;23.23;10.45;;;;;;;;;;5094214;28;20484;-78
2020/12/15 09:27:45;;;;;;;22.85;10.75;;;;;;;;;;5112554;28;20079;-79
2020/12/15 09:30:13;;;;;;;21.60;10.50;;;;;;;;;;5094082;28;20496;-78
2020/12/15 09:32:41;;;;;;;22.05;11.02;;;;;;;;;;5094407;28;20074;-78
2020/12/15 09:35:09;;;;;;;22.55;11.00;;;;;;;;;;5112183;28;20048;-78
2020/12/15 09:37:38;;;;;;;21.77;11.18;;;;;;;;;;5112684;27;20056;-78
2020/12/15 09:40:08;;;;;;;20.38;11.15;;;;;;;;;;5094948;28;20094;-79
2020/12/15 09:42:36;;;;;;;23.08;12.25;;;;;;;;;;5094108;28;20044;-79
2020/12/15 09:45:05;;;;;;;26.42;11.98;;;;;;;;;;5112456;28;20051;-79
2020/12/15 09:47:32;;;;;;;26.33;12.35;;;;;;;;;;5112302;28;20047;-79
2020/12/15 09:50:01;;;;;;;20.92;10.85;;;;;;;;;;5094677;28;20040;-79
2020/12/15 09:52:28;;;;;;;26.15;11.32;;;;;;;;;;5104403;28;20633;-79
2020/12/15 09:54:55;;;;;;;20.42;11.27;;;;;;;;;;5094534;28;20056;-79
2020/12/15 09:57:22;;;;;;;22.75;11.13;;;;;;;;;;5112733;27;20138;-79
2020/12/15 09:59:48;;;;;;;21.63;11.25;;;;;;;;;;5112447;28;20043;-79
2020/12/15 10:02:15;;;;;;;18.52;10.23;;;;;;;;;;5095245;28;20368;-79
2020/12/15 10:04:43;;;;;;;20.17;10.35;;;;;;;;;;5094148;28;20051;-80
2020/12/15 10:07:10;;;;;;;18.88;10.02;;;;;;;;;;5099275;28;20044;-80
2020/12/15 10:09:38;;;;;;;22.80;11.10;;;;;;;;;;5097576;28;20070;-80
2020/12/15 10:12:05;;;;;;;17.38;10.05;;;;;;;;;;5112621;28;20499;-80
2020/12/15 10:14:32;;;;;;;17.17;9.90;;;;;;;;;;5113987;28;20146;-83
2020/12/15 10:16:59;;;;;;;21.92;10.60;;;;;;;;;;5111987;28;20052;-78
2020/12/15 10:19:26;;;;;;;17.23;9.93;;;;;;;;;;5095646;28;20051;-81
2020/12/15 10:21:58;;;;;;;21.23;9.65;;;;;;;;;;5114211;28;20199;-82
2020/12/15 10:24:24;;;;;;;25.17;10.23;;;;;;;;;;5112221;28;20112;-81
2020/12/15 10:26:52;;;;;;;16.90;9.40;;;;;;;;;;5114319;28;20083;-81
2020/12/15 10:29:20;;;;;;;24.38;10.50;;;;;;;;;;5103627;28;20431;-83
2020/12/15 10:32:00;;;;;;;19.52;10.15;;;;;;;;;;5114400;28;20089;-83
2020/12/15 10:34:27;;;;;;;20.42;10.35;;;;;;;;;;5096825;28;20488;-82
2020/12/15 10:36:54;;;;;;;20.00;10.75;;;;;;;;;;5112505;28;20079;-82
2020/12/15 10:39:25;;;;;;;17.98;9.05;;;;;;;;;;5111806;28;20152;-82
2020/12/15 10:41:52;;;;;;;18.48;9.82;;;;;;;;;;5094871;28;20111;-81
2020/12/15 10:44:18;;;;;;;18.02;10.02;;;;;;;;;;5096513;28;20082;-82
2020/12/15 10:46:45;;;;;;;18.88;9.82;;;;;;;;;;5095177;28;20078;-82
2020/12/15 10:49:13;;;;;;;19.85;9.55;;;;;;;;;;5094926;28;20053;-83
2020/12/15 10:51:46;;;;;;;17.13;9.77;;;;;;;;;;5118560;27;20051;-82
2020/12/15 10:54:12;;;;;;;16.00;8.95;;;;;;;;;;5099941;28;20071;-82
2020/12/15 10:56:39;;;;;;;15.13;9.23;;;;;;;;;;5100181;28;20104;-82
2020/12/15 10:59:16;;;;;;;15.95;9.27;;;;;;;;;;5099278;28;20096;-82
2020/12/15 11:01:49;;;;;;;19.38;9.38;;;;;;;;;;5100014;28;20047;-82
2020/12/15 11:04:20;;;;;;;19.17;9.00;;;;;;;;;;5117687;28;20047;-82
2020/12/15 11:06:47;;;;;;;16.15;8.95;;;;;;;;;;5116764;28;20147;-83
2020/12/15 11:09:14;;;;;;;15.02;9.10;;;;;;;;;;5115993;28;20039;-81
2020/12/15 11:11:45;;;;;;;20.52;9.43;;;;;;;;;;5114591;28;20455;-81
2020/12/15 11:14:12;;;;;;;16.10;9.25;;;;;;;;;;5124408;27;20071;-81
2020/12/15 11:16:59;;;;;;;16.38;8.75;;;;;;;;;;5114875;28;20399;-81
2020/12/15 11:19:26;;;;;;;18.58;9.90;;;;;;;;;;5114997;28;20108;-81
2020/12/15 11:21:52;;;;;;;18.73;8.75;;;;;;;;;;5120522;27;20156;-81
2020/12/15 11:24:26;;;;;;;16.55;7.38;;;;;;;;;;5119025;27;20047;-81
2020/12/15 11:26:53;;;;;;;16.33;8.18;;;;;;;;;;5118744;27;20082;-81
2020/12/15 11:29:20;;;;;;;14.48;8.13;;;;;;;;;;5119056;27;20126;-81
2020/12/15 11:31:50;;;;;;;16.55;8.02;;;;;;;;;;5117595;27;20077;-82
2020/12/15 11:34:19;;;;;;;12.68;7.32;;;;;;;;;;5117233;27;20135;-82
2020/12/15 11:36:46;;;;;;;17.48;9.13;;;;;;;;;;5097965;28;20073;-81
2020/12/15 11:39:20;;;;;;;14.05;8.82;;;;;;;;;;5097982;28;20087;-81
2020/12/15 11:41:49;;;;;;;16.38;7.97;;;;;;;;;;5102102;27;20100;-81
2020/12/15 11:44:18;;;;;;;15.02;8.60;;;;;;;;;;5118054;27;20067;-81
2020/12/15 11:46:57;;;;;;;13.93;7.88;;;;;;;;;;5120355;27;20092;-81
2020/12/15 11:49:24;;;;;;;17.30;7.80;;;;;;;;;;5136763;27;20047;-82
2020/12/15 11:51:54;;;;;;;17.25;8.57;;;;;;;;;;5117069;27;20134;-81
2020/12/15 11:54:23;;;;;;;13.55;7.55;;;;;;;;;;5115772;27;20046;-81
2020/12/15 11:56:51;;;;;;;18.10;9.13;;;;;;;;;;5097074;28;20101;-81
2020/12/15 11:59:20;;;;;;;18.27;9.02;;;;;;;;;;5116254;28;20060;-81
2020/12/15 12:01:49;;;;;;;16.38;8.38;;;;;;;;;;5100985;27;20114;-81
2020/12/15 12:04:16;;;;;;;18.77;9.38;;;;;;;;;;5118141;27;20055;-82
2020/12/15 12:06:42;;;;;;;19.40;8.88;;;;;;;;;;5127781;27;20062;-81
2020/12/15 12:09:09;;;;;;;15.93;8.05;;;;;;;;;;5097310;28;20039;-81
2020/12/15 12:11:36;;;;;;;16.13;8.27;;;;;;;;;;5115064;28;20500;-81
2020/12/15 12:14:02;;;;;;;16.40;9.30;;;;;;;;;;5115411;28;20055;-81
2020/12/15 12:16:29;;;;;;;19.75;10.02;;;;;;;;;;5114206;28;20047;-82
2020/12/15 12:18:59;;;;;;;17.08;8.40;;;;;;;;;;5098763;28;20063;-81
2020/12/15 12:21:25;;;;;;;16.80;8.25;;;;;;;;;;5107117;28;20132;-81
2020/12/15 12:23:52;;;;;;;16.52;8.23;;;;;;;;;;5096943;28;20533;-82
2020/12/15 12:26:19;;;;;;;14.57;8.23;;;;;;;;;;5114413;28;20039;-81
2020/12/15 12:28:47;;;;;;;19.83;8.70;;;;;;;;;;5114129;28;20055;-82
2020/12/15 12:31:18;;;;;;;16.85;8.38;;;;;;;;;;5097660;28;20134;-81
2020/12/15 12:33:45;;;;;;;18.02;9.45;;;;;;;;;;5114053;28;20047;-81
2020/12/15 12:36:14;;;;;;;17.67;8.70;;;;;;;;;;5113788;28;20058;-81
2020/12/15 12:38:41;;;;;;;19.00;9.70;;;;;;;;;;5112363;28;20066;-81
2020/12/15 12:41:08;;;;;;;14.13;7.90;;;;;;;;;;5097667;28;20065;-81
2020/12/15 12:43:35;;;;;;;15.25;7.72;;;;;;;;;;5095598;28;20056;-81
2020/12/15 12:46:02;;;;;;;16.45;8.68;;;;;;;;;;5094798;28;20120;-80
2020/12/15 12:48:29;;;;;;;15.48;8.32;;;;;;;;;;5095964;28;20040;-82
2020/12/15 12:51:00;;;;;;;17.05;8.82;;;;;;;;;;5111680;28;20726;-79
2020/12/15 12:53:28;;;;;;;21.58;8.85;;;;;;;;;;5087332;28;20157;-82
2020/12/15 12:55:55;;;;;;;15.35;8.30;;;;;;;;;;5096231;28;20131;-81
2020/12/15 12:58:22;;;;;;;26.60;8.73;;;;;;;;;;5098268;28;20519;-82
2020/12/15 13:00:50;;;;;;;19.70;7.78;;;;;;;;;;5097017;27;20039;-80
2020/12/15 13:03:17;;;;;;;16.98;8.38;;;;;;;;;;5110419;27;20055;-80
2020/12/15 13:05:47;;;;;;;18.02;8.50;;;;;;;;;;5115550;27;20050;-82
2020/12/15 13:08:16;;;;;;;19.35;8.77;;;;;;;;;;5133130;27;20554;-82
2020/12/15 13:10:43;;;;;;;17.55;8.65;;;;;;;;;;5115514;27;20051;-80
2020/12/15 13:13:13;;;;;;;17.50;8.93;;;;;;;;;;5133403;27;20050;-80
2020/12/15 13:15:43;;;;;;;18.52;9.50;;;;;;;;;;5114914;27;20066;-81
2020/12/15 13:18:10;;;;;;;18.40;8.65;;;;;;;;;;5099960;28;20074;-81
2020/12/15 13:20:37;;;;;;;20.60;9.63;;;;;;;;;;5094692;28;20109;-80
2020/12/15 13:23:05;;;;;;;18.00;8.75;;;;;;;;;;5112520;28;20051;-80
2020/12/15 13:25:32;;;;;;;17.42;8.80;;;;;;;;;;5113140;28;20142;-80
2020/12/15 13:27:58;;;;;;;19.83;8.70;;;;;;;;;;5108888;27;20130;-83
2020/12/15 13:30:27;;;;;;;17.15;8.73;;;;;;;;;;5116845;27;20047;-83
2020/12/15 13:32:56;;;;;;;17.63;9.00;;;;;;;;;;5117518;27;20075;-82
2020/12/15 13:35:24;;;;;;;17.40;9.02;;;;;;;;;;5116916;27;20043;-83
2020/12/15 13:37:51;;;;;;;16.90;8.35;;;;;;;;;;5104591;28;20102;-83
2020/12/15 13:40:17;;;;;;;19.60;8.70;;;;;;;;;;5108890;28;20101;-83
2020/12/15 13:42:47;;;;;;;18.30;8.55;;;;;;;;;;5112963;28;20180;-82
2020/12/15 13:45:13;;;;;;;14.35;8.18;;;;;;;;;;5096865;28;20135;-83
2020/12/15 13:47:41;;;;;;;19.92;8.60;;;;;;;;;;5106057;27;20092;-82
2020/12/15 13:50:08;;;;;;;19.75;9.45;;;;;;;;;;5117103;27;20055;-83
2020/12/15 13:52:35;;;;;;;19.48;8.35;;;;;;;;;;5116482;27;20085;-83
2020/12/15 13:55:01;;;;;;;17.10;9.00;;;;;;;;;;5116680;27;20496;-82
2020/12/15 13:57:28;;;;;;;19.13;8.98;;;;;;;;;;5108524;28;20052;-83
2020/12/15 14:00:06;;;;;;;13.88;7.65;;;;;;;;;;5119000;27;20040;-83
2020/12/15 14:02:33;;;;;;;18.15;8.45;;;;;;;;;;5117933;28;20466;-82
2020/12/15 14:05:01;;;;;;;19.10;8.52;;;;;;;;;;5094481;28;20052;-84
2020/12/15 14:07:39;;;;;;;20.58;9.20;;;;;;;;;;5112473;28;20040;-80
2020/12/15 14:10:21;;;;;;;17.45;8.95;;;;;;;;;;5101265;28;20047;-86
2020/12/15 14:13:12;;;;;;;17.52;8.75;;;;;;;;;;5100934;28;20093;-85
2020/12/15 14:15:48;;;;;;;16.52;8.15;;;;;;;;;;5096630;28;20086;-88
2020/12/15 14:18:30;;;;;;;18.10;9.05;;;;;;;;;;5109261;28;20079;-81
2020/12/15 14:21:03;;;;;;;21.70;9.35;;;;;;;;;;5104171;28;20062;-87
2020/12/15 14:23:41;;;;;;;16.63;8.13;;;;;;;;;;5128523;22;20045;-81
2020/12/15 14:26:12;;;;;;;19.98;9.27;;;;;;;;;;5062693;28;20056;-82
2020/12/15 14:28:41;;;;;;;17.98;8.88;;;;;;;;;;5060346;28;20049;-81
2020/12/15 14:31:29;;;;;;;15.20;8.13;;;;;;;;;;5044405;28;20049;-79
2020/12/15 14:33:56;;;;;;;19.70;8.80;;;;;;;;;;5055147;28;20072;-80
2020/12/15 14:36:23;;;;;;;19.00;9.38;;;;;;;;;;5056143;28;20551;-80
2020/12/15 14:38:50;;;;;;;18.40;9.38;;;;;;;;;;5038279;28;20053;-80